Compton, IL (61318)

8:41 PM CST on February 10, 2016 (GMT -0600)
Welland and Angling Roads | | Change Station
CLOSE
Current Station
Personal Weather Station
Location: Earlville, IL
Elevation: 833 ft
Nearby Weather Stations

Elev 833 ft 41.63 °N, 89.02 °W | Updated 5 seconds ago

Partly Cloudy
Partly Cloudy
9.5 °F
Feels Like 4 °F
N
3.1
Wind Variable Wind from NNW
Gusts 5.4 mph

Today
High -- | Low -- °F
--% Chance of Precip.
Yesterday
High -- | Low -- °F
Precip. -- in
Pressure 30.16 in
Visibility 10.0 miles
Clouds Clear
Windchill 4 °F
Dew Point 2 °F
Humidity 69%
Rainfall 0.00 in
Snow Depth Not available.
6:58 AM 5:22 PM
Waxing Crescent, 8% visible
METAR KRPJ 110235Z AUTO 32005KT 10SM CLR M12/M16 A3016 RMK AO2 T11201160
Pressure 30.16 in
Visibility 10.0 miles
Clouds Clear
Windchill 4 °F
Dew Point 2 °F
Humidity 69%
Rainfall 0.00 in
Snow Depth Not available.
6:58 AM 5:22 PM
Waxing Crescent, 8% visible
METAR KRPJ 110235Z AUTO 32005KT 10SM CLR M12/M16 A3016 RMK AO2 T11201160

10-Day Weather Forecast

Almanac

Astronomy

Feb. 10, 2016 Rise Set
Actual Time
Civil Twilight
Nautical Twilight
Astronomical Twilight
Moon
Length of Visible Light
Length of Day
Tomorrow will be .
, % of the Moon is Illuminated

Today's Extremes

State Highs State Lows

Community

WunderPhotos

Upload Photos

1,891,986 photos uploaded!

WunderBlog® & News

Nearby

Air Quality

  Air Quality AQ Index Pollutant
Not available.

Snow Depth

Station Depth Elevation

Earthquake Activity

City Distance Mag. Time & Date
Minimum magnitude displayed is 2.5.

Coastal Water Temperatures

Place Temperature

Stations

Nearby Weather Stations

Station Location Temp. Windchill Dew Point Humidity Wind Precip. Elev Updated Type
                   

Watches & Warnings

There are currently no watches in effect.